createdAt,value
2017-12-02T00:10:19.570Z,90.50
2017-12-02T00:12:47.311Z,90.60
2017-12-02T00:15:14.818Z,90.50
2017-12-02T00:20:45.011Z,90.60
2017-12-02T00:23:12.488Z,90.40
2017-12-02T00:25:40.010Z,90.50
2017-12-02T00:28:07.505Z,90.50
2017-12-02T00:30:35.036Z,90.50
2017-12-02T00:33:06.807Z,90.50
2017-12-02T01:45:01.392Z,90.30
2017-12-02T01:47:29.822Z,90.30
2017-12-02T01:49:57.380Z,90.30
2017-12-02T01:52:24.983Z,90.40
2017-12-02T01:54:52.544Z,90.40
2017-12-02T01:57:20.129Z,90.40
2017-12-02T01:59:47.643Z,90.50
2017-12-02T02:02:15.257Z,90.50
2017-12-02T02:04:42.816Z,90.50
2017-12-02T02:07:11.189Z,90.40
2017-12-02T02:09:39.603Z,90.30
2017-12-02T02:12:07.151Z,90.30
2017-12-02T02:14:34.761Z,90.30
2017-12-02T02:17:02.311Z,90.30
2017-12-02T02:19:29.908Z,90.30
2017-12-02T02:21:57.482Z,90.30
2017-12-02T02:24:25.069Z,90.30
2017-12-02T02:26:52.586Z,90.30
2017-12-02T02:29:20.157Z,90.30
2017-12-02T02:31:47.756Z,90.30
2017-12-02T02:34:15.350Z,90.30
2017-12-02T02:36:42.981Z,90.30
2017-12-02T02:39:16.441Z,90.30
2017-12-02T02:41:44.054Z,90.20
2017-12-02T02:44:15.955Z,90.20
2017-12-02T02:46:44.285Z,90.30
2017-12-02T02:49:11.818Z,90.20
2017-12-02T02:51:39.777Z,90.20
2017-12-02T02:54:07.347Z,90.20
2017-12-02T02:56:35.027Z,90.10
2017-12-02T02:59:04.217Z,90.10
2017-12-02T03:01:31.723Z,90.10
2017-12-02T03:04:00.886Z,90.10
2017-12-02T03:06:28.455Z,90.00
2017-12-02T03:08:55.974Z,90.10
2017-12-02T03:11:24.051Z,90.00
2017-12-02T03:13:51.595Z,90.00
2017-12-02T03:16:25.339Z,90.00
2017-12-02T03:18:53.470Z,90.00
2017-12-02T03:21:22.202Z,90.00
2017-12-02T03:23:53.124Z,90.00
2017-12-02T04:41:19.269Z,89.30
2017-12-02T04:43:47.563Z,89.40
2017-12-02T05:41:11.079Z,89.70
2017-12-02T05:43:38.801Z,89.60
2017-12-02T05:46:12.296Z,89.30
2017-12-02T05:48:40.983Z,89.40
2017-12-02T05:51:08.540Z,89.50
2017-12-02T05:53:36.174Z,89.60
2017-12-02T05:56:03.681Z,89.80
2017-12-02T05:58:31.209Z,89.80
2017-12-02T06:00:58.717Z,89.70
2017-12-02T06:03:26.242Z,90.20
2017-12-02T06:05:53.772Z,90.00
2017-12-02T06:08:22.155Z,89.80
2017-12-02T06:10:50.422Z,89.70
2017-12-02T06:13:18.030Z,89.70
2017-12-02T06:15:45.621Z,89.70
2017-12-02T06:18:13.140Z,89.70
2017-12-02T06:23:32.635Z,89.40
2017-12-02T06:26:01.582Z,89.30
2017-12-02T06:28:34.834Z,89.40
2017-12-02T06:31:02.417Z,89.40
2017-12-02T06:33:32.432Z,89.20
2017-12-02T06:35:59.998Z,89.40
2017-12-02T06:38:27.529Z,89.90
2017-12-02T06:40:55.063Z,89.20
2017-12-02T06:43:22.615Z,89.00
2017-12-02T06:45:50.887Z,88.90
2017-12-02T06:48:19.281Z,88.80
2017-12-02T06:50:46.839Z,88.80
2017-12-02T06:53:14.359Z,88.80
2017-12-02T06:55:41.863Z,88.90
2017-12-02T06:58:09.381Z,88.80
2017-12-02T07:00:36.859Z,88.70
2017-12-02T07:03:05.200Z,88.70
2017-12-02T07:05:36.584Z,88.70
2017-12-02T07:08:04.150Z,88.40
2017-12-02T07:10:38.228Z,88.30
2017-12-02T07:13:05.822Z,88.40
2017-12-02T07:15:34.132Z,88.20
2017-12-02T07:18:01.673Z,88.20
2017-12-02T07:20:29.235Z,88.20
2017-12-02T07:22:56.739Z,88.10
2017-12-02T07:28:18.450Z,88.00
2017-12-02T07:30:46.003Z,87.90
2017-12-02T07:33:13.523Z,88.30
2017-12-02T07:35:41.128Z,88.30
2017-12-02T07:38:08.711Z,88.10
2017-12-02T07:40:36.180Z,88.20
2017-12-02T07:43:03.679Z,88.10
2017-12-02T07:45:31.189Z,87.80
2017-12-02T07:47:58.726Z,87.70
2017-12-02T07:53:34.440Z,87.70
2017-12-02T07:56:02.753Z,88.10
2017-12-02T07:58:37.004Z,87.90
2017-12-02T08:38:51.762Z,87.70
2017-12-02T08:41:20.082Z,87.80
2017-12-02T08:43:47.570Z,87.70
2017-12-02T08:46:16.389Z,87.70
2017-12-02T08:48:44.761Z,87.60
2017-12-02T08:51:12.244Z,87.60
2017-12-02T08:53:39.745Z,87.60
2017-12-02T08:56:28.447Z,87.90
2017-12-02T08:58:56.122Z,87.90
2017-12-02T09:04:20.299Z,88.00
2017-12-02T09:06:52.664Z,88.30
2017-12-02T09:09:27.450Z,87.90
2017-12-02T09:15:21.279Z,87.70
2017-12-02T09:17:51.107Z,87.40
2017-12-02T09:26:14.779Z,87.30
2017-12-02T09:28:42.303Z,87.00
2017-12-02T09:31:09.779Z,87.00
2017-12-02T09:33:37.328Z,87.10
2017-12-02T09:36:04.892Z,86.90
2017-12-02T09:38:39.961Z,86.80
2017-12-02T09:41:18.138Z,86.90
2017-12-02T09:43:45.633Z,86.80
2017-12-02T10:48:58.404Z,86.60
2017-12-02T10:51:26.704Z,86.60
2017-12-02T11:11:47.679Z,86.40
2017-12-02T11:14:15.161Z,86.40
2017-12-02T11:16:43.443Z,86.80
2017-12-02T11:19:10.998Z,86.80
2017-12-02T11:21:38.517Z,86.20
2017-12-02T11:24:06.008Z,86.20
2017-12-02T11:26:33.561Z,86.40
2017-12-02T11:29:01.127Z,86.40
2017-12-02T11:31:29.388Z,86.70
2017-12-02T11:33:56.919Z,86.50
2017-12-02T11:39:23.829Z,86.20
2017-12-02T11:41:51.490Z,86.10
2017-12-02T11:44:19.919Z,86.10
2017-12-02T11:46:47.452Z,86.10
2017-12-02T11:49:15.018Z,86.30
2017-12-02T11:51:42.572Z,86.40
2017-12-02T11:54:10.076Z,86.30
2017-12-02T11:56:37.662Z,87.00
2017-12-02T11:59:05.300Z,85.60
2017-12-02T12:01:32.850Z,85.40
2017-12-02T12:04:00.375Z,85.40
2017-12-02T12:06:27.951Z,85.40
2017-12-02T12:08:55.525Z,85.40
2017-12-02T12:11:23.097Z,85.30
2017-12-02T12:13:50.688Z,85.30
2017-12-02T12:16:18.416Z,85.10
2017-12-02T12:18:45.977Z,85.10
2017-12-02T12:21:13.584Z,85.20
2017-12-02T12:23:41.220Z,85.20
2017-12-02T12:26:09.507Z,85.30
2017-12-02T12:28:37.892Z,84.90
2017-12-02T12:31:05.524Z,84.90
2017-12-02T12:33:33.065Z,85.10
2017-12-02T12:36:00.598Z,85.00
2017-12-02T12:38:28.149Z,85.40
2017-12-02T12:40:57.009Z,85.10
2017-12-02T12:43:24.579Z,84.80
2017-12-02T12:45:52.172Z,84.80
2017-12-02T12:48:19.686Z,84.60
2017-12-02T12:50:47.188Z,84.70
2017-12-02T12:53:14.703Z,84.90
2017-12-02T12:55:42.231Z,85.20
2017-12-02T12:58:09.743Z,85.40
2017-12-02T13:00:37.339Z,85.20
2017-12-02T13:03:04.923Z,85.20
2017-12-02T13:05:32.438Z,85.10
2017-12-02T13:07:59.941Z,85.30
2017-12-02T13:10:27.549Z,85.30
2017-12-02T13:12:55.066Z,85.60
2017-12-02T13:15:22.567Z,85.80
2017-12-02T13:17:50.142Z,85.90
2017-12-02T13:20:17.690Z,85.90
2017-12-02T13:22:45.230Z,85.90
2017-12-02T13:25:12.774Z,85.80
2017-12-02T13:27:41.142Z,85.50
2017-12-02T13:30:08.661Z,85.50
2017-12-02T13:32:36.304Z,85.50
2017-12-02T13:35:03.929Z,85.40
2017-12-02T13:37:32.234Z,85.50
2017-12-02T13:39:59.912Z,85.20
2017-12-02T13:42:27.608Z,85.50
2017-12-02T13:44:56.024Z,85.90
2017-12-02T13:47:26.263Z,85.90
2017-12-02T13:52:57.074Z,86.00
2017-12-02T13:55:26.184Z,85.80
2017-12-02T13:57:54.512Z,85.80
2017-12-02T14:00:22.066Z,85.80
2017-12-02T14:02:49.607Z,85.60
2017-12-02T14:05:17.191Z,85.70
2017-12-02T14:07:44.736Z,86.20
2017-12-02T14:10:12.327Z,86.30
2017-12-02T14:12:39.813Z,86.30
2017-12-02T14:15:07.296Z,86.60
2017-12-02T14:17:35.561Z,86.30
2017-12-02T14:20:03.142Z,86.30
2017-12-02T14:22:30.681Z,86.40
2017-12-02T14:24:58.193Z,86.20
2017-12-02T14:27:25.763Z,86.20
2017-12-02T14:29:53.298Z,86.20
2017-12-02T14:32:20.839Z,86.30
2017-12-02T14:34:48.348Z,86.60
2017-12-02T14:37:15.850Z,86.70
2017-12-02T14:39:43.407Z,86.80
2017-12-02T14:42:10.967Z,86.60
2017-12-02T14:44:38.530Z,86.50
2017-12-02T14:47:06.039Z,86.60
2017-12-02T14:49:33.564Z,86.60
2017-12-02T14:52:01.128Z,86.70
2017-12-02T14:54:28.649Z,86.80
2017-12-02T14:56:56.166Z,86.60
2017-12-02T14:59:23.665Z,86.50
2017-12-02T15:01:51.194Z,86.40
2017-12-02T15:04:18.713Z,86.30
2017-12-02T15:06:46.218Z,86.30
2017-12-02T15:09:13.754Z,86.20
2017-12-02T15:11:41.242Z,86.30
2017-12-02T15:14:08.746Z,86.40
2017-12-02T15:16:36.233Z,86.50
2017-12-02T15:19:03.720Z,86.60
2017-12-02T15:21:31.234Z,86.60
2017-12-02T15:23:58.768Z,86.70
2017-12-02T15:26:26.321Z,86.80
2017-12-02T15:28:54.588Z,87.00
2017-12-02T15:31:22.854Z,86.80
2017-12-02T15:33:50.367Z,86.80
2017-12-02T15:36:17.851Z,86.80
2017-12-02T15:38:45.319Z,86.70
2017-12-02T15:41:12.825Z,86.80
2017-12-02T15:43:40.381Z,86.90
2017-12-02T15:46:07.881Z,86.80
2017-12-02T15:48:35.389Z,86.80
2017-12-02T15:51:02.930Z,86.80
2017-12-02T15:53:30.431Z,86.80
2017-12-02T15:55:57.933Z,87.60
2017-12-02T15:58:25.431Z,87.00
2017-12-02T16:00:52.911Z,87.00
2017-12-02T16:03:20.442Z,87.00
2017-12-02T16:05:47.959Z,87.10
2017-12-02T16:08:15.474Z,87.10
2017-12-02T16:10:42.985Z,87.10
2017-12-02T16:13:10.476Z,86.90
2017-12-02T16:15:37.962Z,87.00
2017-12-02T16:18:05.486Z,87.20
2017-12-02T16:20:33.766Z,87.40
2017-12-02T16:23:02.046Z,87.30
2017-12-02T16:25:29.605Z,87.30
2017-12-02T16:27:57.866Z,87.30
2017-12-02T16:30:26.163Z,87.80
2017-12-02T16:32:53.640Z,87.10
2017-12-02T16:35:21.130Z,87.20
2017-12-02T16:37:48.659Z,87.30
2017-12-02T16:40:16.174Z,87.20
2017-12-02T16:42:44.479Z,87.30
2017-12-02T16:45:12.433Z,87.30
2017-12-02T16:47:39.936Z,87.30
2017-12-02T16:50:07.467Z,87.40
2017-12-02T16:52:35.019Z,87.40
2017-12-02T16:55:02.783Z,87.30
2017-12-02T16:57:30.280Z,87.30
2017-12-02T16:59:57.768Z,87.30
2017-12-02T17:02:25.286Z,87.30
2017-12-02T17:04:52.840Z,87.30
2017-12-02T17:07:20.351Z,87.30
2017-12-02T17:09:48.633Z,87.50
2017-12-02T17:12:16.901Z,87.40
2017-12-02T17:14:44.413Z,87.40
2017-12-02T17:17:11.932Z,87.30
2017-12-02T17:19:40.229Z,87.30
2017-12-02T17:22:07.718Z,87.30
2017-12-02T17:24:35.259Z,87.30
2017-12-02T17:27:02.766Z,87.30
2017-12-02T17:29:30.346Z,87.20
2017-12-02T17:31:58.599Z,87.20
2017-12-02T17:34:26.108Z,87.20
2017-12-02T17:36:53.605Z,87.20
2017-12-02T17:39:21.175Z,87.20
2017-12-02T17:41:48.732Z,87.10
2017-12-02T17:44:16.285Z,87.10
2017-12-02T17:46:43.822Z,87.10
2017-12-02T17:49:11.323Z,87.10
2017-12-02T17:51:39.604Z,87.10
2017-12-02T17:54:07.991Z,87.20
2017-12-02T17:56:36.271Z,87.20
2017-12-02T17:59:04.541Z,87.10
2017-12-02T18:01:36.062Z,87.10
2017-12-02T18:04:03.602Z,87.00
2017-12-02T18:06:31.128Z,87.00
2017-12-02T18:08:58.617Z,86.90
2017-12-02T18:11:26.160Z,86.90
2017-12-02T18:13:53.666Z,86.90
2017-12-02T18:16:40.411Z,86.90
2017-12-02T18:19:07.963Z,87.20
2017-12-02T18:21:35.466Z,87.00
2017-12-02T18:24:03.589Z,86.90
2017-12-02T18:26:31.917Z,86.80
2017-12-02T18:28:59.469Z,86.70
2017-12-02T18:31:27.023Z,86.70
2017-12-02T18:33:54.604Z,86.70
2017-12-02T18:36:24.701Z,86.70
2017-12-02T18:38:52.167Z,86.60
2017-12-02T18:41:19.681Z,86.70
2017-12-02T18:43:47.230Z,86.70
2017-12-02T18:46:21.523Z,86.80
2017-12-02T18:48:49.168Z,86.60
2017-12-02T18:51:16.673Z,86.70
2017-12-02T18:53:44.945Z,86.80
2017-12-02T18:56:13.221Z,86.80
2017-12-02T18:58:41.499Z,86.70
2017-12-02T19:01:09.742Z,86.70
2017-12-02T19:03:37.214Z,86.70
2017-12-02T19:06:04.747Z,86.80
2017-12-02T19:08:32.267Z,86.80
2017-12-02T19:10:59.751Z,86.70
2017-12-02T19:13:27.278Z,86.70
2017-12-02T19:15:55.156Z,86.70
2017-12-02T19:21:20.985Z,86.80
2017-12-02T19:23:48.553Z,86.90
2017-12-02T19:26:16.098Z,87.00
2017-12-02T19:28:44.404Z,87.00
2017-12-02T19:31:11.947Z,87.00
2017-12-02T19:33:39.468Z,87.00
2017-12-02T19:36:07.049Z,87.00
2017-12-02T19:38:41.352Z,87.00
2017-12-02T19:41:13.570Z,86.90
2017-12-02T19:43:55.612Z,86.90
2017-12-02T19:46:23.104Z,87.00
2017-12-02T19:48:50.609Z,87.00
2017-12-02T19:51:18.103Z,87.00
2017-12-02T19:53:45.583Z,87.00
2017-12-02T19:56:13.078Z,87.00
2017-12-02T19:58:40.602Z,87.10
2017-12-02T20:01:08.142Z,87.10
2017-12-02T20:03:36.399Z,87.10
2017-12-02T20:06:03.927Z,87.10
2017-12-02T20:08:31.457Z,87.10
2017-12-02T20:10:58.967Z,87.10
2017-12-02T20:13:26.528Z,87.20
2017-12-02T20:15:54.014Z,87.20
2017-12-02T20:18:22.307Z,87.30
2017-12-02T20:20:49.819Z,87.20
2017-12-02T20:23:17.303Z,87.20
2017-12-02T20:25:44.823Z,87.30
2017-12-02T20:28:12.337Z,87.20
2017-12-02T20:30:40.599Z,87.30
2017-12-02T20:33:08.931Z,87.40
2017-12-02T20:35:36.447Z,87.30
2017-12-02T20:38:04.718Z,87.40
2017-12-02T20:40:32.993Z,87.50
2017-12-02T20:43:00.511Z,87.40
2017-12-02T20:45:28.038Z,87.50
2017-12-02T20:47:55.580Z,87.50
2017-12-02T20:50:23.695Z,87.50
2017-12-02T20:52:51.867Z,87.50
2017-12-02T20:55:19.433Z,87.90
2017-12-02T20:57:46.954Z,87.80
2017-12-02T21:00:14.550Z,87.80
2017-12-02T21:02:51.827Z,87.70
2017-12-02T21:05:19.398Z,87.80
2017-12-02T21:07:46.928Z,87.70
2017-12-02T21:10:14.502Z,88.10
2017-12-02T21:12:42.072Z,87.90
2017-12-02T21:15:09.705Z,87.70
2017-12-02T21:17:37.283Z,87.60
2017-12-02T21:20:04.795Z,87.70
2017-12-02T21:22:33.893Z,87.90
2017-12-02T21:25:02.275Z,87.80
2017-12-02T21:27:30.556Z,87.60
2017-12-02T21:30:01.701Z,87.60
2017-12-02T21:32:29.358Z,87.70
2017-12-02T21:34:56.914Z,87.80
2017-12-02T21:37:25.909Z,88.20
2017-12-02T21:39:53.481Z,88.00
2017-12-02T21:42:20.954Z,87.90
2017-12-02T21:44:48.461Z,88.50
2017-12-02T21:47:16.026Z,88.00
2017-12-02T21:49:49.034Z,87.80
2017-12-02T21:52:17.997Z,87.70
2017-12-02T21:54:45.547Z,87.70
2017-12-02T21:57:13.127Z,87.70
2017-12-02T21:59:40.653Z,87.70
2017-12-02T22:02:16.900Z,87.70
2017-12-02T22:04:54.192Z,87.70
2017-12-02T22:07:21.741Z,87.70
2017-12-02T22:09:49.242Z,87.80
2017-12-02T22:12:16.795Z,87.70
2017-12-02T22:14:44.329Z,87.70
2017-12-02T22:17:11.846Z,87.80
2017-12-02T22:19:39.429Z,87.70
2017-12-02T22:22:06.955Z,87.70
2017-12-02T22:24:34.490Z,87.70
2017-12-02T22:27:03.163Z,87.70
2017-12-02T22:29:31.509Z,87.60
2017-12-02T22:31:59.033Z,87.60
2017-12-02T22:34:26.583Z,87.70
2017-12-02T22:40:00.732Z,87.60
2017-12-02T22:42:29.164Z,87.60
2017-12-02T22:44:56.697Z,87.60
2017-12-02T22:47:24.950Z,87.70
2017-12-02T22:49:52.537Z,87.60
2017-12-02T22:52:20.042Z,87.70
2017-12-02T22:54:47.532Z,87.70
2017-12-02T22:57:15.015Z,87.70
2017-12-02T22:59:43.294Z,87.60
2017-12-02T23:02:10.857Z,87.70
2017-12-02T23:04:38.414Z,87.70
2017-12-02T23:07:05.938Z,87.40
2017-12-02T23:09:34.225Z,87.70
2017-12-02T23:12:02.673Z,87.80
2017-12-02T23:14:30.183Z,87.70
2017-12-02T23:16:57.677Z,87.70
2017-12-02T23:19:25.179Z,87.60
2017-12-02T23:21:53.440Z,87.80
2017-12-02T23:24:20.907Z,87.70
2017-12-02T23:26:48.377Z,87.60
2017-12-02T23:29:16.668Z,87.40
2017-12-02T23:31:44.158Z,87.40
2017-12-02T23:40:09.015Z,87.30
2017-12-02T23:46:14.782Z,87.30
2017-12-02T23:48:43.016Z,87.30
2017-12-02T23:51:10.791Z,87.30
2017-12-02T23:53:41.785Z,87.40
2017-12-02T23:56:09.291Z,87.40
2017-12-02T23:58:36.849Z,87.40
